createdAt,value
2023-02-22T00:01:38.083Z,74.27
2023-02-22T00:04:06.290Z,73.97
2023-02-22T00:06:33.060Z,74.25
2023-02-22T00:08:59.851Z,74.12
2023-02-22T00:11:26.259Z,73.94
2023-02-22T00:13:52.760Z,73.98
2023-02-22T00:16:21.976Z,73.89
2023-02-22T00:18:49.320Z,73.63
2023-02-22T00:21:17.122Z,74.10
2023-02-22T00:23:46.614Z,73.89
2023-02-22T00:26:18.155Z,73.67
2023-02-22T00:28:46.942Z,73.62
2023-02-22T00:31:15.048Z,74.03
2023-02-22T00:33:42.014Z,74.10
2023-02-22T00:36:10.698Z,73.81
2023-02-22T00:38:37.504Z,74.42
2023-02-22T00:41:04.064Z,74.47
2023-02-22T00:43:30.539Z,74.30
2023-02-22T00:45:57.762Z,74.63
2023-02-22T00:48:24.143Z,74.54
2023-02-22T00:50:53.718Z,74.68
2023-02-22T00:53:19.977Z,74.62
2023-02-22T00:55:46.324Z,74.58
2023-02-22T00:58:12.857Z,75.13
2023-02-22T01:00:42.553Z,75.13
2023-02-22T01:03:11.218Z,74.94
2023-02-22T01:05:38.245Z,74.75
2023-02-22T01:08:09.669Z,75.12
2023-02-22T01:10:37.768Z,75.02
2023-02-22T01:13:12.478Z,75.16
2023-02-22T01:15:41.742Z,74.60
2023-02-22T01:18:09.108Z,74.77
2023-02-22T01:20:36.145Z,75.31
2023-02-22T01:23:06.981Z,74.96
2023-02-22T01:25:34.562Z,75.01
2023-02-22T01:28:02.550Z,75.11
2023-02-22T01:30:32.875Z,75.00
2023-02-22T01:33:00.111Z,74.56
2023-02-22T01:35:29.757Z,74.71
2023-02-22T01:37:57.557Z,74.89
2023-02-22T01:40:33.805Z,75.20
2023-02-22T01:43:03.745Z,75.06
2023-02-22T01:45:30.081Z,74.65
2023-02-22T01:48:00.777Z,74.97
2023-02-22T01:50:29.247Z,75.01
2023-02-22T01:52:56.149Z,75.26
2023-02-22T01:55:23.281Z,75.23
2023-02-22T01:57:49.842Z,74.93
2023-02-22T02:00:21.017Z,75.17
2023-02-22T02:02:58.989Z,74.99
2023-02-22T02:05:27.841Z,75.01
2023-02-22T02:07:54.269Z,75.03
2023-02-22T02:10:21.535Z,75.22
2023-02-22T02:12:50.437Z,75.68
2023-02-22T02:15:18.257Z,75.48
2023-02-22T02:17:45.062Z,75.52
2023-02-22T02:20:35.156Z,75.53
2023-02-22T02:23:25.683Z,75.31
2023-02-22T02:26:21.431Z,75.45
2023-02-22T02:29:09.730Z,75.55
2023-02-22T02:32:10.067Z,75.49
2023-02-22T02:34:49.579Z,75.23
2023-02-22T02:37:49.554Z,75.37
2023-02-22T02:40:27.061Z,75.10
2023-02-22T02:43:01.402Z,75.28
2023-02-22T02:45:36.298Z,75.28
2023-02-22T02:48:07.166Z,75.31
2023-02-22T02:50:41.618Z,75.70
2023-02-22T02:53:09.865Z,75.62
2023-02-22T02:55:37.777Z,75.47
2023-02-22T02:58:08.786Z,75.67
2023-02-22T03:00:39.979Z,75.58
2023-02-22T03:03:43.440Z,75.57
2023-02-22T03:06:29.635Z,75.33
2023-02-22T03:09:24.062Z,76.17
2023-02-22T03:12:08.028Z,76.03
2023-02-22T03:15:04.169Z,76.13
2023-02-22T03:17:52.342Z,75.99
2023-02-22T03:20:46.353Z,76.08
2023-02-22T03:23:24.731Z,75.93
2023-02-22T03:26:02.399Z,76.49
2023-02-22T03:28:30.456Z,76.06
2023-02-22T03:31:10.268Z,75.75
2023-02-22T03:33:39.269Z,76.28
2023-02-22T03:36:20.807Z,76.28
2023-02-22T03:38:50.149Z,76.86
2023-02-22T03:41:20.269Z,76.78
2023-02-22T03:43:50.418Z,76.67
2023-02-22T03:46:19.204Z,76.40
2023-02-22T03:49:06.895Z,76.58
2023-02-22T03:51:33.478Z,76.60
2023-02-22T03:53:59.937Z,76.75
2023-02-22T03:56:35.725Z,76.58
2023-02-22T03:59:08.407Z,76.72
2023-02-22T04:01:35.278Z,76.78
2023-02-22T04:04:02.661Z,76.60
2023-02-22T04:06:29.539Z,77.08
2023-02-22T04:08:56.071Z,77.07
2023-02-22T04:11:22.779Z,77.13
2023-02-22T04:13:49.296Z,77.45
2023-02-22T04:16:15.786Z,76.80
2023-02-22T04:18:42.296Z,77.26
2023-02-22T04:21:09.235Z,77.22
2023-02-22T04:23:35.710Z,77.43
2023-02-22T04:26:02.059Z,78.27
2023-02-22T04:28:28.392Z,78.39
2023-02-22T04:30:54.792Z,78.52
2023-02-22T04:33:21.201Z,78.06
2023-02-22T04:35:47.542Z,78.07
2023-02-22T04:38:14.189Z,78.41
2023-02-22T04:40:40.647Z,77.90
2023-02-22T04:43:06.982Z,78.08
2023-02-22T04:45:33.368Z,78.39
2023-02-22T04:47:59.693Z,78.53
2023-02-22T04:50:26.072Z,78.79
2023-02-22T04:52:52.447Z,78.84
2023-02-22T04:55:18.877Z,77.96
2023-02-22T04:57:45.285Z,78.28
2023-02-22T05:00:17.278Z,78.42
2023-02-22T05:02:43.688Z,78.11
2023-02-22T05:05:10.120Z,78.23
2023-02-22T05:07:36.668Z,78.34
2023-02-22T05:10:03.130Z,78.79
2023-02-22T05:12:29.648Z,77.94
2023-02-22T05:14:56.158Z,78.56
2023-02-22T05:17:22.527Z,78.93
2023-02-22T05:19:48.876Z,79.09
2023-02-22T05:22:15.224Z,78.60
2023-02-22T05:24:41.585Z,78.43
2023-02-22T05:27:07.940Z,78.37
2023-02-22T05:29:34.316Z,78.19
2023-02-22T05:32:02.517Z,77.49
2023-02-22T05:34:29.102Z,77.67
2023-02-22T05:36:55.451Z,77.81
2023-02-22T05:39:22.236Z,78.31
2023-02-22T05:41:48.683Z,78.74
2023-02-22T05:44:15.299Z,78.24
2023-02-22T05:46:41.700Z,78.32
2023-02-22T05:49:08.133Z,78.46
2023-02-22T05:51:34.547Z,78.04
2023-02-22T05:54:00.909Z,78.39
2023-02-22T05:56:30.148Z,77.90
2023-02-22T05:58:57.267Z,78.00
2023-02-22T06:01:23.695Z,78.09
2023-02-22T06:03:51.147Z,77.99
2023-02-22T06:06:22.250Z,78.23
2023-02-22T06:08:49.187Z,78.50
2023-02-22T06:11:16.001Z,78.12
2023-02-22T06:13:42.672Z,77.79
2023-02-22T06:16:09.090Z,78.31
2023-02-22T06:18:35.551Z,78.19
2023-02-22T06:21:01.970Z,77.75
2023-02-22T06:23:28.314Z,77.82
2023-02-22T06:25:54.833Z,77.92
2023-02-22T06:28:21.247Z,77.89
2023-02-22T06:30:47.659Z,78.13
2023-02-22T06:33:14.046Z,78.00
2023-02-22T06:35:40.412Z,77.99
2023-02-22T06:38:06.826Z,77.48
2023-02-22T06:40:33.198Z,77.59
2023-02-22T06:42:59.989Z,77.98
2023-02-22T06:45:26.593Z,77.17
2023-02-22T06:47:52.976Z,77.74
2023-02-22T06:50:26.534Z,77.66
2023-02-22T06:52:52.939Z,77.58
2023-02-22T06:55:22.178Z,77.79
2023-02-22T06:57:48.561Z,77.32
2023-02-22T07:00:17.310Z,76.97
2023-02-22T07:02:43.696Z,76.92
2023-02-22T07:05:12.506Z,76.65
2023-02-22T07:07:39.980Z,76.24
2023-02-22T07:10:08.144Z,76.59
2023-02-22T07:12:35.429Z,75.36
2023-02-22T07:15:01.798Z,76.03
2023-02-22T07:17:28.116Z,76.56
2023-02-22T07:19:54.468Z,76.31
2023-02-22T07:22:20.822Z,76.14
2023-02-22T07:24:47.835Z,76.71
2023-02-22T07:27:14.188Z,76.75
2023-02-22T07:29:42.688Z,76.39
2023-02-22T07:32:10.288Z,76.70
2023-02-22T07:34:37.267Z,76.77
2023-02-22T07:37:03.667Z,76.57
2023-02-22T07:39:30.142Z,76.42
2023-02-22T07:41:56.561Z,76.73
2023-02-22T07:44:22.997Z,76.50
2023-02-22T07:46:52.644Z,76.53
2023-02-22T07:49:19.103Z,76.13
2023-02-22T07:51:45.821Z,76.16
2023-02-22T07:54:12.172Z,77.16
2023-02-22T07:56:44.907Z,76.15
2023-02-22T07:59:11.242Z,75.68
2023-02-22T08:01:37.680Z,75.72
2023-02-22T08:04:04.190Z,75.93
2023-02-22T08:06:31.778Z,75.68
2023-02-22T08:08:58.294Z,75.35
2023-02-22T08:11:25.679Z,75.52
2023-02-22T08:13:52.105Z,75.86
2023-02-22T08:16:18.478Z,75.53
2023-02-22T08:18:44.880Z,75.35
2023-02-22T08:21:11.565Z,75.34
2023-02-22T08:23:38.788Z,75.01
2023-02-22T08:26:10.869Z,75.09
2023-02-22T08:28:37.231Z,75.09
2023-02-22T08:31:03.687Z,74.88
2023-02-22T08:33:30.095Z,75.22
2023-02-22T08:35:56.530Z,75.76
2023-02-22T08:38:32.075Z,75.24
2023-02-22T08:40:58.506Z,75.30
2023-02-22T08:43:24.973Z,74.97
2023-02-22T08:45:52.418Z,75.17
2023-02-22T08:48:19.769Z,75.01
2023-02-22T08:50:46.717Z,75.12
2023-02-22T08:53:15.171Z,74.72
2023-02-22T08:55:42.168Z,75.04
2023-02-22T08:58:12.137Z,74.63
2023-02-22T09:00:40.200Z,74.61
2023-02-22T09:03:09.362Z,73.73
2023-02-22T09:05:35.856Z,73.57
2023-02-22T09:08:02.654Z,73.24
2023-02-22T09:10:33.337Z,73.13
2023-02-22T09:13:00.838Z,72.77
2023-02-22T09:15:28.428Z,72.29
2023-02-22T09:17:54.785Z,72.32
2023-02-22T09:20:23.531Z,72.90
2023-02-22T09:22:50.436Z,71.82
2023-02-22T09:25:18.220Z,72.08
2023-02-22T09:27:46.545Z,71.51
2023-02-22T09:30:20.344Z,71.00
2023-02-22T09:32:46.864Z,70.96
2023-02-22T09:35:13.335Z,71.21
2023-02-22T09:37:39.767Z,72.19
2023-02-22T09:40:09.895Z,70.65
2023-02-22T09:42:48.021Z,70.21
2023-02-22T09:45:22.707Z,70.11
2023-02-22T09:48:15.206Z,69.72
2023-02-22T09:50:48.546Z,69.80
2023-02-22T09:53:31.759Z,69.44
2023-02-22T09:56:04.480Z,69.58
2023-02-22T09:58:33.270Z,69.36
2023-02-22T10:01:36.452Z,69.53
2023-02-22T10:04:45.305Z,69.39
2023-02-22T10:07:28.109Z,69.08
2023-02-22T10:09:56.552Z,69.30
2023-02-22T10:12:29.434Z,69.14
2023-02-22T10:15:19.062Z,69.07
2023-02-22T10:18:03.588Z,69.12
2023-02-22T10:20:45.729Z,68.92
2023-02-22T10:23:41.168Z,68.61
2023-02-22T10:26:19.563Z,69.03
2023-02-22T10:28:59.309Z,68.77
2023-02-22T10:31:30.907Z,68.88
2023-02-22T10:34:02.263Z,68.65
2023-02-22T10:36:29.289Z,69.30
2023-02-22T10:39:02.173Z,68.64
2023-02-22T10:41:31.687Z,68.80
2023-02-22T10:43:58.268Z,68.44
2023-02-22T10:46:28.452Z,68.10
2023-02-22T10:49:02.538Z,68.77
2023-02-22T10:51:29.097Z,68.70
2023-02-22T10:54:13.876Z,68.41
2023-02-22T10:56:48.829Z,68.21
2023-02-22T10:59:34.118Z,67.76
2023-02-22T11:02:08.633Z,67.37
2023-02-22T11:04:54.058Z,67.38
2023-02-22T11:07:32.446Z,67.15
2023-02-22T11:10:01.225Z,67.09
2023-02-22T11:12:29.241Z,66.61
2023-02-22T11:14:56.474Z,67.00
2023-02-22T11:17:31.980Z,66.12
2023-02-22T11:19:59.363Z,65.90
2023-02-22T11:22:40.992Z,66.30
2023-02-22T11:25:08.294Z,65.78
2023-02-22T11:27:43.718Z,65.76
2023-02-22T11:30:22.406Z,65.48
2023-02-22T11:32:53.185Z,64.78
2023-02-22T11:35:32.061Z,64.73
2023-02-22T11:38:24.448Z,65.10
2023-02-22T11:41:22.987Z,64.39
2023-02-22T11:43:51.526Z,65.03
2023-02-22T11:46:30.167Z,64.69
2023-02-22T11:49:04.524Z,64.39
2023-02-22T11:51:45.175Z,64.32
2023-02-22T11:54:28.818Z,64.25
2023-02-22T11:57:23.243Z,64.05
2023-02-22T12:00:24.172Z,62.87
2023-02-22T12:03:19.520Z,62.51
2023-02-22T12:05:59.390Z,64.59
2023-02-22T12:08:41.037Z,62.66
2023-02-22T12:11:23.777Z,62.97
2023-02-22T12:14:16.382Z,62.05
2023-02-22T12:17:01.691Z,61.33
2023-02-22T12:19:36.681Z,61.99
2023-02-22T12:22:12.059Z,61.85
2023-02-22T12:24:45.230Z,61.08
2023-02-22T12:27:18.434Z,61.46
2023-02-22T12:30:18.354Z,61.82
2023-02-22T12:32:53.896Z,62.67
2023-02-22T12:35:29.950Z,62.35
2023-02-22T12:38:04.732Z,62.46
2023-02-22T12:40:35.546Z,62.19
2023-02-22T12:43:20.574Z,61.98
2023-02-22T12:45:52.748Z,62.27
2023-02-22T12:48:43.306Z,61.84
2023-02-22T12:51:34.451Z,61.39
2023-02-22T12:54:11.912Z,61.25
2023-02-22T12:56:45.012Z,61.59
2023-02-22T12:59:20.912Z,60.89
2023-02-22T13:01:55.037Z,61.02
2023-02-22T13:04:22.133Z,61.02
2023-02-22T13:07:10.036Z,61.03
2023-02-22T13:09:54.085Z,61.43
2023-02-22T13:12:38.434Z,61.44
2023-02-22T13:15:17.137Z,60.99
2023-02-22T13:18:02.846Z,61.31
2023-02-22T13:20:36.951Z,61.27
2023-02-22T13:23:32.464Z,61.49
2023-02-22T13:26:11.906Z,61.09
2023-02-22T13:28:50.762Z,61.36
2023-02-22T13:31:33.325Z,61.39
2023-02-22T13:34:06.679Z,61.56
2023-02-22T13:36:42.112Z,61.82
2023-02-22T13:39:28.420Z,62.62
2023-02-22T13:42:04.102Z,62.20
2023-02-22T13:45:03.157Z,61.96
2023-02-22T13:47:52.606Z,62.89
2023-02-22T13:50:40.997Z,61.32
2023-02-22T13:53:14.507Z,61.78
2023-02-22T13:55:44.168Z,61.81
2023-02-22T13:58:12.510Z,61.45
2023-02-22T14:00:49.243Z,61.11
2023-02-22T14:03:15.523Z,62.08
2023-02-22T14:05:42.309Z,62.34
2023-02-22T14:08:31.575Z,62.35
2023-02-22T14:11:00.598Z,61.91
2023-02-22T14:13:33.225Z,62.22
2023-02-22T14:16:02.445Z,61.97
2023-02-22T14:18:39.213Z,62.24
2023-02-22T14:21:15.814Z,62.00
2023-02-22T14:23:43.293Z,62.10
2023-02-22T14:26:15.107Z,62.13
2023-02-22T14:28:52.488Z,62.03
2023-02-22T14:31:34.924Z,62.19
2023-02-22T14:34:06.390Z,62.14
2023-02-22T14:36:54.461Z,62.86
2023-02-22T14:39:32.313Z,62.71
2023-02-22T14:42:05.914Z,63.03
2023-02-22T14:45:14.426Z,62.44
2023-02-22T14:47:54.402Z,62.95
2023-02-22T14:50:27.030Z,62.85
2023-02-22T14:53:03.895Z,63.03
2023-02-22T14:55:33.136Z,62.80
2023-02-22T14:58:10.570Z,62.59
2023-02-22T15:00:45.885Z,62.90
2023-02-22T15:03:37.246Z,63.00
2023-02-22T15:06:14.881Z,63.09
2023-02-22T15:08:42.566Z,63.73
2023-02-22T15:11:21.490Z,63.21
2023-02-22T15:13:54.814Z,62.95
2023-02-22T15:16:23.276Z,62.75
2023-02-22T15:18:54.712Z,62.93
2023-02-22T15:21:24.615Z,62.62
2023-02-22T15:23:54.541Z,62.53
2023-02-22T15:26:37.321Z,62.61
2023-02-22T15:29:19.590Z,63.82
2023-02-22T15:31:48.283Z,65.98
2023-02-22T15:34:14.890Z,67.56
2023-02-22T15:36:43.924Z,68.58
2023-02-22T15:39:29.596Z,69.20
2023-02-22T15:42:19.155Z,69.60
2023-02-22T15:44:48.085Z,71.01
2023-02-22T15:47:27.246Z,70.63
2023-02-22T15:50:33.846Z,69.79
2023-02-22T15:53:04.807Z,69.74
2023-02-22T15:55:37.541Z,70.33
2023-02-22T15:58:15.809Z,70.66
2023-02-22T16:00:45.304Z,71.02
2023-02-22T16:03:15.009Z,71.08
2023-02-22T16:05:47.705Z,71.33
2023-02-22T16:08:18.575Z,72.24
2023-02-22T16:10:58.402Z,72.85
2023-02-22T16:13:32.366Z,72.66
2023-02-22T16:16:03.038Z,72.62
2023-02-22T16:18:31.764Z,73.11
2023-02-22T16:21:01.358Z,73.08
2023-02-22T16:23:29.084Z,73.25
2023-02-22T16:26:05.254Z,73.71
2023-02-22T16:28:33.941Z,74.21
2023-02-22T16:31:00.392Z,74.72
2023-02-22T16:33:30.930Z,74.51
2023-02-22T16:35:57.362Z,74.65
2023-02-22T16:38:27.350Z,74.64
2023-02-22T16:40:55.755Z,75.00
2023-02-22T16:43:27.492Z,75.25
2023-02-22T16:45:53.914Z,75.23
2023-02-22T16:48:23.525Z,75.46
2023-02-22T16:50:51.700Z,75.44
2023-02-22T16:53:21.107Z,75.48
2023-02-22T16:55:48.062Z,75.72
2023-02-22T16:58:17.179Z,75.59
2023-02-22T17:00:43.676Z,75.60
2023-02-22T17:03:15.271Z,75.75
2023-02-22T17:05:41.750Z,75.98
2023-02-22T17:08:08.160Z,76.17
2023-02-22T17:10:34.658Z,76.14
2023-02-22T17:13:12.832Z,76.63
2023-02-22T17:15:46.641Z,76.53
2023-02-22T17:18:16.149Z,76.99
2023-02-22T17:20:45.766Z,77.01
2023-02-22T17:23:12.376Z,76.96
2023-02-22T17:25:50.176Z,76.87
2023-02-22T17:28:17.021Z,77.37
2023-02-22T17:30:45.166Z,77.21
2023-02-22T17:33:16.360Z,77.53
2023-02-22T17:35:42.865Z,77.41
2023-02-22T17:38:10.188Z,77.28
2023-02-22T17:40:38.689Z,77.37
2023-02-22T17:43:08.707Z,77.25
2023-02-22T17:45:38.310Z,77.10
2023-02-22T17:48:05.486Z,76.69
2023-02-22T17:50:31.844Z,76.43
2023-02-22T17:53:00.512Z,76.54
2023-02-22T17:55:27.425Z,76.03
2023-02-22T17:57:58.266Z,76.13
2023-02-22T18:00:33.014Z,76.18
2023-02-22T18:03:21.726Z,76.03
2023-02-22T18:05:50.832Z,76.62
2023-02-22T18:08:17.383Z,75.82
2023-02-22T18:10:44.678Z,75.47
2023-02-22T18:13:14.170Z,75.45
2023-02-22T18:15:40.468Z,75.43
2023-02-22T18:18:07.187Z,75.22
2023-02-22T18:20:39.259Z,75.48
2023-02-22T18:23:07.935Z,75.33
2023-02-22T18:25:35.953Z,75.54
2023-02-22T18:28:04.606Z,75.38
2023-02-22T18:30:31.008Z,75.52
2023-02-22T18:32:57.666Z,75.91
2023-02-22T18:35:24.087Z,75.62
2023-02-22T18:37:50.424Z,75.66
2023-02-22T18:40:18.913Z,76.08
2023-02-22T18:42:46.570Z,76.11
2023-02-22T18:45:13.209Z,75.94
2023-02-22T18:47:44.096Z,75.82
2023-02-22T18:50:11.731Z,76.07
2023-02-22T18:52:44.792Z,76.27
2023-02-22T18:55:22.177Z,76.43
2023-02-22T18:57:52.480Z,76.71
2023-02-22T19:00:24.168Z,78.01
2023-02-22T19:02:50.624Z,77.71
2023-02-22T19:05:17.329Z,76.50
2023-02-22T19:07:44.990Z,76.34
2023-02-22T19:10:11.369Z,76.37
2023-02-22T19:12:37.713Z,76.69
2023-02-22T19:15:04.511Z,76.22
2023-02-22T19:17:32.203Z,76.61
2023-02-22T19:19:58.591Z,76.33
2023-02-22T19:22:26.217Z,76.97
2023-02-22T19:24:56.351Z,76.74
2023-02-22T19:27:22.851Z,76.88
2023-02-22T19:29:49.836Z,77.05
2023-02-22T19:32:17.361Z,77.04
2023-02-22T19:34:44.118Z,76.87
2023-02-22T19:37:12.495Z,77.08
2023-02-22T19:39:38.977Z,76.67
2023-02-22T19:42:09.021Z,77.09
2023-02-22T19:44:35.514Z,77.52
2023-02-22T19:47:02.122Z,77.23
2023-02-22T19:49:29.182Z,77.30
2023-02-22T19:51:58.025Z,77.55
2023-02-22T19:54:24.402Z,77.80
2023-02-22T19:56:51.124Z,77.93
2023-02-22T19:59:22.583Z,77.85
2023-02-22T20:01:52.691Z,77.64
2023-02-22T20:04:21.308Z,77.92
2023-02-22T20:06:50.541Z,77.82
2023-02-22T20:09:20.065Z,78.15
2023-02-22T20:11:48.005Z,78.29
2023-02-22T20:14:20.204Z,78.31
2023-02-22T20:16:46.891Z,78.58
2023-02-22T20:19:13.644Z,78.82
2023-02-22T20:21:40.217Z,78.70
2023-02-22T20:24:09.115Z,78.57
2023-02-22T20:26:36.789Z,78.44
2023-02-22T20:29:04.385Z,78.64
2023-02-22T20:31:31.354Z,78.95
2023-02-22T20:33:59.963Z,78.48
2023-02-22T20:36:28.482Z,78.54
2023-02-22T20:38:59.740Z,79.15
2023-02-22T20:41:28.606Z,78.88
2023-02-22T20:43:56.166Z,79.20
2023-02-22T20:46:23.832Z,78.91
2023-02-22T20:48:55.357Z,79.18
2023-02-22T20:51:22.245Z,79.57
2023-02-22T20:53:48.890Z,79.34
2023-02-22T20:56:19.908Z,79.61
2023-02-22T20:58:46.674Z,79.66
2023-02-22T21:01:16.943Z,79.71
2023-02-22T21:03:43.645Z,79.43
2023-02-22T21:06:14.782Z,79.87
2023-02-22T21:08:45.806Z,80.03
2023-02-22T21:11:13.838Z,79.92
2023-02-22T21:13:40.943Z,79.75
2023-02-22T21:16:10.152Z,79.89
2023-02-22T21:18:37.247Z,79.99
2023-02-22T21:21:10.305Z,79.75
2023-02-22T21:23:37.521Z,80.01
2023-02-22T21:26:04.172Z,79.83
2023-02-22T21:28:49.969Z,80.19
2023-02-22T21:31:18.950Z,79.98
2023-02-22T21:33:58.447Z,80.18
2023-02-22T21:36:25.819Z,80.49
2023-02-22T21:39:00.644Z,80.36
2023-02-22T21:41:29.396Z,80.76
2023-02-22T21:43:58.409Z,80.51
2023-02-22T21:46:26.993Z,80.50
2023-02-22T21:48:53.493Z,80.64
2023-02-22T21:51:31.298Z,80.75
2023-02-22T21:54:00.961Z,80.55
2023-02-22T21:56:27.893Z,80.74
2023-02-22T21:59:00.242Z,80.69
2023-02-22T22:01:28.384Z,80.59
2023-02-22T22:03:56.402Z,80.32
2023-02-22T22:06:22.785Z,80.63
2023-02-22T22:08:49.129Z,80.50
2023-02-22T22:11:17.827Z,80.63
2023-02-22T22:13:44.445Z,80.62
2023-02-22T22:16:14.702Z,80.72
2023-02-22T22:18:42.948Z,80.54
2023-02-22T22:21:16.365Z,80.86
2023-02-22T22:23:46.861Z,80.58
2023-02-22T22:26:19.882Z,80.47
2023-02-22T22:28:48.456Z,80.39
2023-02-22T22:31:17.871Z,80.31
2023-02-22T22:33:44.782Z,80.88
2023-02-22T22:36:13.609Z,80.93
2023-02-22T22:38:40.265Z,80.98
2023-02-22T22:41:09.061Z,80.77
2023-02-22T22:43:37.048Z,80.46
2023-02-22T22:46:05.603Z,80.86
2023-02-22T22:48:36.020Z,80.94
2023-02-22T22:51:06.573Z,81.56
2023-02-22T22:53:34.436Z,81.06
2023-02-22T22:56:08.512Z,80.97
2023-02-22T22:58:35.521Z,80.79
2023-02-22T23:01:06.289Z,80.73
2023-02-22T23:03:36.805Z,80.73
2023-02-22T23:06:04.659Z,80.67
2023-02-22T23:08:42.894Z,80.90
2023-02-22T23:11:11.071Z,80.83
2023-02-22T23:13:38.634Z,81.37
2023-02-22T23:16:12.020Z,81.23
2023-02-22T23:18:43.254Z,81.13
2023-02-22T23:21:10.645Z,81.32
2023-02-22T23:23:37.721Z,80.97
2023-02-22T23:26:18.450Z,81.45
2023-02-22T23:28:47.256Z,80.92
2023-02-22T23:31:16.818Z,80.99
2023-02-22T23:33:48.113Z,80.98
2023-02-22T23:36:15.916Z,81.29
2023-02-22T23:38:42.997Z,80.94
2023-02-22T23:41:13.635Z,81.24
2023-02-22T23:43:40.537Z,81.01
2023-02-22T23:46:13.554Z,81.08
2023-02-22T23:48:46.628Z,81.26
2023-02-22T23:51:15.251Z,81.09
2023-02-22T23:53:49.373Z,81.19
2023-02-22T23:56:21.852Z,81.28
2023-02-22T23:58:52.275Z,81.27
